Time;durP1;ratioP1;P1;durP2;ratioP2;P2;SDS_P1;SDS_P2;PMS_P1;PMS_P2;Temp;Humidity;BMP_temperature;BMP_pressure;BME280_temperature;BME280_humidity;BME280_pressure;Samples;Min_cycle;Max_cycle;Signal;HPM_P1;HPM_P2
2023/04/25 00:01:46;;;;;;;1.85;1.40;;;;;;;;;;4992129;28;20065;-76
2023/04/25 00:04:13;;;;;;;1.52;1.42;;;;;;;;;;4987401;28;20050;-76
2023/04/25 00:06:40;;;;;;;3.30;1.40;;;;;;;;;;4989712;28;20050;-76
2023/04/25 00:09:08;;;;;;;1.52;1.30;;;;;;;;;;4946695;28;20065;-76
2023/04/25 00:11:38;;;;;;;1.95;1.40;;;;;;;;;;4956706;28;20499;-75
2023/04/25 00:14:06;;;;;;;1.70;1.30;;;;;;;;;;4975749;28;20152;-75
2023/04/25 00:16:34;;;;;;;2.10;1.55;;;;;;;;;;4991281;28;20054;-75
2023/04/25 00:19:02;;;;;;;1.45;1.35;;;;;;;;;;4989628;28;20518;-75
2023/04/25 00:21:28;;;;;;;2.08;1.75;;;;;;;;;;4973522;28;20054;-75
2023/04/25 00:23:55;;;;;;;2.35;1.55;;;;;;;;;;4987984;28;20054;-73
2023/04/25 00:26:22;;;;;;;1.98;1.50;;;;;;;;;;4989210;28;20521;-73
2023/04/25 00:28:49;;;;;;;1.85;1.40;;;;;;;;;;4984669;28;20105;-76
2023/04/25 00:31:16;;;;;;;1.63;1.13;;;;;;;;;;4957484;28;20058;-76
2023/04/25 00:33:42;;;;;;;3.30;1.40;;;;;;;;;;4973597;28;20545;-77
2023/04/25 00:36:09;;;;;;;2.13;1.40;;;;;;;;;;4975180;28;20050;-76
2023/04/25 00:38:38;;;;;;;2.00;1.90;;;;;;;;;;4980398;28;20089;-76
2023/04/25 00:41:06;;;;;;;1.85;1.40;;;;;;;;;;4939250;28;20069;-76
2023/04/25 00:43:33;;;;;;;2.88;1.70;;;;;;;;;;4955949;28;20050;-77
2023/04/25 00:46:01;;;;;;;1.55;1.42;;;;;;;;;;4973488;28;20050;-77
2023/04/25 00:48:27;;;;;;;4.75;1.75;;;;;;;;;;4989665;28;20062;-77
2023/04/25 00:50:57;;;;;;;1.77;1.30;;;;;;;;;;4977307;28;20086;-77
2023/04/25 00:53:25;;;;;;;3.58;1.60;;;;;;;;;;4959062;28;20066;-77
2023/04/25 00:55:53;;;;;;;2.20;1.50;;;;;;;;;;4995425;28;20054;-77
2023/04/25 00:58:20;;;;;;;4.22;1.40;;;;;;;;;;4974516;28;20058;-77
2023/04/25 01:00:48;;;;;;;2.83;1.40;;;;;;;;;;4957912;28;20078;-76
2023/04/25 01:03:17;;;;;;;1.40;1.30;;;;;;;;;;4954887;28;20057;-77
2023/04/25 01:05:44;;;;;;;2.40;1.40;;;;;;;;;;4954742;28;20062;-77
2023/04/25 01:08:13;;;;;;;1.98;1.60;;;;;;;;;;4954726;28;20155;-77
2023/04/25 01:10:40;;;;;;;1.90;1.40;;;;;;;;;;4981206;28;20057;-76
2023/04/25 01:13:06;;;;;;;2.58;1.40;;;;;;;;;;4990947;28;20050;-76
2023/04/25 01:15:35;;;;;;;3.03;1.63;;;;;;;;;;4973538;28;20499;-77
2023/04/25 01:18:02;;;;;;;1.65;1.50;;;;;;;;;;4973597;28;20060;-77
2023/04/25 01:20:29;;;;;;;3.55;1.65;;;;;;;;;;4967503;28;20353;-77
2023/04/25 01:22:56;;;;;;;2.33;1.30;;;;;;;;;;4990011;28;20057;-77
2023/04/25 01:25:22;;;;;;;3.35;1.33;;;;;;;;;;4974524;28;20051;-77
2023/04/25 01:27:49;;;;;;;3.97;1.40;;;;;;;;;;4990765;28;20057;-77
2023/04/25 01:30:16;;;;;;;1.98;1.30;;;;;;;;;;4984783;28;20054;-77
2023/04/25 01:32:42;;;;;;;1.48;1.25;;;;;;;;;;4948743;28;20054;-77
2023/04/25 01:35:11;;;;;;;1.77;1.38;;;;;;;;;;4990792;28;20112;-77
2023/04/25 01:37:42;;;;;;;2.67;1.42;;;;;;;;;;4959084;28;20054;-77
2023/04/25 01:40:10;;;;;;;2.95;1.40;;;;;;;;;;4958155;28;20420;-77
2023/04/25 01:42:39;;;;;;;2.83;1.75;;;;;;;;;;4974825;28;20062;-76
2023/04/25 01:45:06;;;;;;;2.22;1.60;;;;;;;;;;4992777;28;20060;-77
2023/04/25 01:47:34;;;;;;;1.70;1.52;;;;;;;;;;4961098;28;20866;-77
2023/04/25 01:50:05;;;;;;;2.60;1.67;;;;;;;;;;4977016;28;20092;-77
2023/04/25 01:52:32;;;;;;;4.15;2.08;;;;;;;;;;4977888;28;20058;-77
2023/04/25 01:55:01;;;;;;;3.22;1.75;;;;;;;;;;4977680;28;20449;-77
2023/04/25 01:57:28;;;;;;;2.05;1.73;;;;;;;;;;4961218;28;20129;-77
2023/04/25 01:59:57;;;;;;;1.85;1.70;;;;;;;;;;4962761;28;20495;-78
2023/04/25 02:02:24;;;;;;;3.47;1.77;;;;;;;;;;4977961;28;20065;-77
2023/04/25 02:04:51;;;;;;;2.88;1.60;;;;;;;;;;4993371;28;20432;-77
2023/04/25 02:07:18;;;;;;;4.30;1.80;;;;;;;;;;4961569;28;20108;-77
2023/04/25 02:09:45;;;;;;;2.20;1.67;;;;;;;;;;4991123;28;20153;-77
2023/04/25 02:12:12;;;;;;;2.05;1.85;;;;;;;;;;4976138;28;20138;-77
2023/04/25 02:14:38;;;;;;;4.28;1.85;;;;;;;;;;4975860;28;20451;-77
2023/04/25 02:17:05;;;;;;;4.63;1.70;;;;;;;;;;4975990;28;20050;-77
2023/04/25 02:19:32;;;;;;;1.73;1.40;;;;;;;;;;4960096;28;20082;-78
2023/04/25 02:21:59;;;;;;;1.85;1.60;;;;;;;;;;4992235;28;20057;-77
2023/04/25 02:24:27;;;;;;;1.75;1.65;;;;;;;;;;4992067;28;20057;-77
2023/04/25 02:26:55;;;;;;;2.42;1.70;;;;;;;;;;4976097;28;20054;-77
2023/04/25 02:29:22;;;;;;;2.97;1.60;;;;;;;;;;4975462;28;20116;-77
2023/04/25 02:31:49;;;;;;;2.10;1.90;;;;;;;;;;4959616;28;20058;-77
2023/04/25 02:34:16;;;;;;;4.15;1.75;;;;;;;;;;4991714;28;20065;-77
2023/04/25 02:36:43;;;;;;;2.03;1.52;;;;;;;;;;4991661;28;20061;-77
2023/04/25 02:39:10;;;;;;;3.25;1.65;;;;;;;;;;4991769;28;20054;-77
2023/04/25 02:41:37;;;;;;;3.72;1.85;;;;;;;;;;4960389;28;20058;-77
2023/04/25 02:44:04;;;;;;;3.13;1.88;;;;;;;;;;4989866;28;20054;-77
2023/04/25 02:46:30;;;;;;;2.13;1.75;;;;;;;;;;4975795;28;20084;-77
2023/04/25 02:49:05;;;;;;;4.55;1.70;;;;;;;;;;4992222;28;20601;-77
2023/04/25 02:51:32;;;;;;;1.77;1.67;;;;;;;;;;4957836;28;20503;-76
2023/04/25 02:53:59;;;;;;;2.15;1.95;;;;;;;;;;4955856;28;20054;-77
2023/04/25 02:56:26;;;;;;;3.65;2.20;;;;;;;;;;4955407;28;20062;-76
2023/04/25 02:58:53;;;;;;;2.10;1.73;;;;;;;;;;4956335;28;20057;-77
2023/04/25 03:01:20;;;;;;;2.63;2.00;;;;;;;;;;4968647;28;20050;-77
2023/04/25 03:03:47;;;;;;;3.15;2.30;;;;;;;;;;4956488;28;20106;-77
2023/04/25 03:06:15;;;;;;;2.80;2.35;;;;;;;;;;4956193;28;20495;-77
2023/04/25 03:08:42;;;;;;;4.18;2.38;;;;;;;;;;4971780;28;20089;-77
2023/04/25 03:11:10;;;;;;;3.35;2.65;;;;;;;;;;4984632;28;20473;-77
2023/04/25 03:13:37;;;;;;;3.55;2.33;;;;;;;;;;4975173;28;20062;-77
2023/04/25 03:16:04;;;;;;;3.30;2.05;;;;;;;;;;4979666;28;20054;-77
2023/04/25 03:18:31;;;;;;;5.13;2.00;;;;;;;;;;4958941;28;20112;-76
2023/04/25 03:20:57;;;;;;;2.67;2.00;;;;;;;;;;4981869;28;20054;-76
2023/04/25 03:23:24;;;;;;;2.63;2.40;;;;;;;;;;4990849;28;20063;-77
2023/04/25 03:25:51;;;;;;;2.80;2.05;;;;;;;;;;4990829;28;20057;-77
2023/04/25 03:28:17;;;;;;;3.88;2.47;;;;;;;;;;4991079;28;20084;-76
2023/04/25 03:30:44;;;;;;;3.72;2.60;;;;;;;;;;4974399;28;20058;-77
2023/04/25 03:33:11;;;;;;;3.22;2.58;;;;;;;;;;4976412;28;20388;-77
2023/04/25 03:35:38;;;;;;;3.03;2.40;;;;;;;;;;4965270;28;20077;-76
2023/04/25 03:38:04;;;;;;;3.15;2.65;;;;;;;;;;4974938;28;20069;-76
2023/04/25 03:40:31;;;;;;;5.47;2.55;;;;;;;;;;4978676;28;20077;-76
2023/04/25 03:42:58;;;;;;;5.20;2.72;;;;;;;;;;4974960;28;20058;-76
2023/04/25 03:45:25;;;;;;;2.47;2.22;;;;;;;;;;4974609;28;20054;-77
2023/04/25 03:47:52;;;;;;;5.57;2.35;;;;;;;;;;4974667;28;20138;-76
2023/04/25 03:50:18;;;;;;;2.60;2.40;;;;;;;;;;4969131;28;20058;-77
2023/04/25 03:52:45;;;;;;;4.75;2.70;;;;;;;;;;4973143;28;20057;-76
2023/04/25 03:55:12;;;;;;;3.78;2.17;;;;;;;;;;4975230;28;20068;-76
2023/04/25 03:57:39;;;;;;;3.28;2.13;;;;;;;;;;4991000;28;20063;-76
2023/04/25 04:00:06;;;;;;;4.47;2.85;;;;;;;;;;4989872;28;20054;-76
2023/04/25 04:02:34;;;;;;;3.20;2.42;;;;;;;;;;4974483;28;20064;-77
2023/04/25 04:05:02;;;;;;;3.47;2.65;;;;;;;;;;4979380;28;20081;-75
2023/04/25 04:07:32;;;;;;;3.28;2.90;;;;;;;;;;4994634;28;20050;-78
2023/04/25 04:10:00;;;;;;;2.80;2.60;;;;;;;;;;4990086;28;20061;-79
2023/04/25 04:12:27;;;;;;;4.45;2.83;;;;;;;;;;4995524;28;20126;-78
2023/04/25 04:14:54;;;;;;;4.88;3.28;;;;;;;;;;4996365;28;20050;-79
2023/04/25 04:17:21;;;;;;;3.15;2.85;;;;;;;;;;4974571;28;20085;-77
2023/04/25 04:19:48;;;;;;;4.53;2.65;;;;;;;;;;4976455;28;20569;-76
2023/04/25 04:22:23;;;;;;;4.78;2.85;;;;;;;;;;4974933;28;20755;-78
2023/04/25 04:24:49;;;;;;;8.95;3.53;;;;;;;;;;4953838;28;20058;-76
2023/04/25 04:27:21;;;;;;;4.47;3.55;;;;;;;;;;4965840;28;20058;-77
2023/04/25 04:29:48;;;;;;;3.72;3.10;;;;;;;;;;4990070;28;20454;-77
2023/04/25 04:32:15;;;;;;;3.85;3.30;;;;;;;;;;4984311;28;20058;-76
2023/04/25 04:34:42;;;;;;;3.35;3.05;;;;;;;;;;4958000;28;20081;-77
2023/04/25 04:37:09;;;;;;;3.63;2.90;;;;;;;;;;4950311;28;20058;-76
2023/04/25 04:39:36;;;;;;;3.47;2.67;;;;;;;;;;4970556;28;20054;-76
2023/04/25 04:42:04;;;;;;;3.00;2.70;;;;;;;;;;4938407;28;20063;-76
2023/04/25 04:44:35;;;;;;;5.18;2.88;;;;;;;;;;4970467;28;20097;-77
2023/04/25 04:47:03;;;;;;;5.68;2.95;;;;;;;;;;4951112;28;20423;-76
2023/04/25 04:49:30;;;;;;;4.05;2.75;;;;;;;;;;4973414;28;20101;-76
2023/04/25 04:51:57;;;;;;;2.53;2.30;;;;;;;;;;4986291;28;20046;-77
2023/04/25 04:54:25;;;;;;;4.30;2.47;;;;;;;;;;4989028;28;20109;-76
2023/04/25 04:56:52;;;;;;;2.45;2.25;;;;;;;;;;4974772;28;20062;-77
2023/04/25 04:59:19;;;;;;;2.85;2.45;;;;;;;;;;4962538;28;20081;-77
2023/04/25 05:01:46;;;;;;;4.07;2.55;;;;;;;;;;4978738;28;20054;-77
2023/04/25 05:04:13;;;;;;;6.03;2.50;;;;;;;;;;4973264;28;20421;-77
2023/04/25 05:06:40;;;;;;;4.22;3.10;;;;;;;;;;4973573;28;20129;-77
2023/04/25 05:09:07;;;;;;;3.28;2.70;;;;;;;;;;4975573;28;20058;-77
2023/04/25 05:11:33;;;;;;;6.78;3.15;;;;;;;;;;4989779;28;20084;-77
2023/04/25 05:14:00;;;;;;;3.13;2.58;;;;;;;;;;4973699;28;20065;-78
2023/04/25 05:16:27;;;;;;;6.72;3.00;;;;;;;;;;4990455;28;20058;-78
2023/04/25 05:18:54;;;;;;;3.00;2.50;;;;;;;;;;4992050;28;20062;-77
2023/04/25 05:21:21;;;;;;;6.43;2.95;;;;;;;;;;4978100;28;20054;-77
2023/04/25 05:23:47;;;;;;;6.53;3.45;;;;;;;;;;4978488;28;20050;-78
2023/04/25 05:26:14;;;;;;;2.97;2.55;;;;;;;;;;4977805;28;20142;-78
2023/04/25 05:28:42;;;;;;;4.10;2.97;;;;;;;;;;4987677;28;20058;-77
2023/04/25 05:31:10;;;;;;;4.15;2.50;;;;;;;;;;4990946;28;20058;-75
2023/04/25 05:33:37;;;;;;;2.83;2.47;;;;;;;;;;4956759;28;20415;-76
2023/04/25 05:36:04;;;;;;;3.33;2.47;;;;;;;;;;4977541;28;20058;-79
2023/04/25 05:38:30;;;;;;;4.15;3.22;;;;;;;;;;4962722;28;20414;-78
2023/04/25 05:41:00;;;;;;;3.67;2.95;;;;;;;;;;5010346;28;20057;-79
2023/04/25 05:43:27;;;;;;;4.13;3.08;;;;;;;;;;5010783;28;20506;-78
2023/04/25 05:45:54;;;;;;;4.40;2.88;;;;;;;;;;4991802;28;20146;-77
2023/04/25 05:48:21;;;;;;;4.70;2.92;;;;;;;;;;4976946;28;20054;-78
2023/04/25 05:50:47;;;;;;;4.20;3.65;;;;;;;;;;4992653;28;20051;-79
2023/04/25 05:53:14;;;;;;;3.33;3.03;;;;;;;;;;4982571;28;20136;-79
2023/04/25 05:55:41;;;;;;;4.97;3.60;;;;;;;;;;4975837;28;20212;-77
2023/04/25 05:58:08;;;;;;;4.00;3.70;;;;;;;;;;4979384;28;20054;-79
2023/04/25 06:00:34;;;;;;;5.25;3.47;;;;;;;;;;4984688;28;20513;-76
2023/04/25 06:03:01;;;;;;;4.43;3.60;;;;;;;;;;4985769;28;20062;-77
2023/04/25 06:05:28;;;;;;;5.25;3.70;;;;;;;;;;4991875;28;20487;-75
2023/04/25 06:07:55;;;;;;;3.60;3.30;;;;;;;;;;4991463;28;20458;-74
2023/04/25 06:10:22;;;;;;;5.28;3.67;;;;;;;;;;4991133;28;20054;-75
2023/04/25 06:12:49;;;;;;;4.07;3.45;;;;;;;;;;4983294;28;20068;-73
2023/04/25 06:15:16;;;;;;;3.70;3.13;;;;;;;;;;4992728;28;20054;-73
2023/04/25 06:17:54;;;;;;;3.40;3.10;;;;;;;;;;4976960;28;20062;-73
2023/04/25 06:20:23;;;;;;;3.55;3.05;;;;;;;;;;4958880;28;20109;-74
2023/04/25 06:22:53;;;;;;;4.32;3.25;;;;;;;;;;4982412;28;20058;-76
2023/04/25 06:25:20;;;;;;;4.00;3.40;;;;;;;;;;4991129;28;20065;-74
2023/04/25 06:27:47;;;;;;;4.05;3.65;;;;;;;;;;4994834;28;20054;-75
2023/04/25 06:30:13;;;;;;;3.63;3.00;;;;;;;;;;4991588;28;20058;-74
2023/04/25 06:32:40;;;;;;;3.92;3.42;;;;;;;;;;4984601;28;20525;-75
2023/04/25 06:35:07;;;;;;;3.75;2.90;;;;;;;;;;4974559;28;20064;-75
2023/04/25 06:37:34;;;;;;;6.13;3.30;;;;;;;;;;4974209;28;20058;-75
2023/04/25 06:40:02;;;;;;;3.90;3.47;;;;;;;;;;4975051;28;20089;-75
2023/04/25 06:42:28;;;;;;;3.35;3.05;;;;;;;;;;4979963;28;20254;-75
2023/04/25 06:44:55;;;;;;;3.55;2.63;;;;;;;;;;4991649;28;20069;-74
2023/04/25 06:47:22;;;;;;;4.88;2.65;;;;;;;;;;4991713;28;20054;-75
2023/04/25 06:49:49;;;;;;;3.15;2.53;;;;;;;;;;4990841;28;20577;-77
2023/04/25 06:52:17;;;;;;;3.60;3.25;;;;;;;;;;4956487;28;20050;-78
2023/04/25 06:54:45;;;;;;;3.33;3.00;;;;;;;;;;4975034;28;20073;-78
2023/04/25 06:57:11;;;;;;;2.92;2.72;;;;;;;;;;4974449;28;20054;-76
2023/04/25 06:59:38;;;;;;;3.38;2.42;;;;;;;;;;4958810;28;20056;-77
2023/04/25 07:02:05;;;;;;;3.78;3.17;;;;;;;;;;4953530;28;20507;-77
2023/04/25 07:04:32;;;;;;;4.05;2.97;;;;;;;;;;4939168;28;20404;-79
2023/04/25 07:07:02;;;;;;;3.50;3.20;;;;;;;;;;4959707;28;20065;-81
2023/04/25 07:09:29;;;;;;;3.20;2.90;;;;;;;;;;4942494;28;20047;-78
2023/04/25 07:11:56;;;;;;;3.75;3.00;;;;;;;;;;4962091;28;20050;-80
2023/04/25 07:14:23;;;;;;;2.95;2.65;;;;;;;;;;4959990;28;20054;-79
2023/04/25 07:16:49;;;;;;;3.53;2.70;;;;;;;;;;4959261;28;20073;-78
2023/04/25 07:19:16;;;;;;;3.38;3.08;;;;;;;;;;4974930;28;20390;-79
2023/04/25 07:21:43;;;;;;;5.18;2.92;;;;;;;;;;4975066;28;20062;-81
2023/04/25 07:24:10;;;;;;;4.10;2.90;;;;;;;;;;4994494;28;20054;-81
2023/04/25 07:26:37;;;;;;;3.80;2.83;;;;;;;;;;4994664;28;20065;-79
2023/04/25 07:29:04;;;;;;;4.65;3.00;;;;;;;;;;4975784;28;20050;-78
2023/04/25 07:31:30;;;;;;;4.28;3.40;;;;;;;;;;5006229;28;20065;-79
2023/04/25 07:33:57;;;;;;;5.03;3.20;;;;;;;;;;4985451;28;20058;-82
2023/04/25 07:36:27;;;;;;;3.60;3.17;;;;;;;;;;5013114;28;20100;-76
2023/04/25 07:38:54;;;;;;;6.18;3.33;;;;;;;;;;4998337;28;20058;-79
2023/04/25 07:41:20;;;;;;;3.55;3.25;;;;;;;;;;5002669;28;20109;-77
2023/04/25 07:43:47;;;;;;;3.58;3.28;;;;;;;;;;4992960;28;20056;-78
2023/04/25 07:46:14;;;;;;;4.80;3.95;;;;;;;;;;4987130;28;20061;-75
2023/04/25 07:48:41;;;;;;;5.35;4.53;;;;;;;;;;4999878;28;20058;-74
2023/04/25 07:51:08;;;;;;;4.90;3.50;;;;;;;;;;4978181;28;20054;-74
2023/04/25 07:53:37;;;;;;;5.45;4.18;;;;;;;;;;4980844;28;20050;-76
2023/04/25 07:56:04;;;;;;;5.05;4.07;;;;;;;;;;5009598;28;20153;-76
2023/04/25 07:58:31;;;;;;;6.13;4.70;;;;;;;;;;5011032;28;20505;-76
2023/04/25 08:00:58;;;;;;;8.93;5.07;;;;;;;;;;5009333;28;20104;-75
2023/04/25 08:03:25;;;;;;;7.60;5.00;;;;;;;;;;5005930;28;20130;-76
2023/04/25 08:05:52;;;;;;;11.30;7.22;;;;;;;;;;4973504;28;20077;-77
2023/04/25 08:08:19;;;;;;;7.03;5.90;;;;;;;;;;4973885;28;20407;-76
2023/04/25 08:10:47;;;;;;;10.05;6.28;;;;;;;;;;4973113;28;20077;-77
2023/04/25 08:13:14;;;;;;;8.52;6.28;;;;;;;;;;4973296;28;20145;-76
2023/04/25 08:15:41;;;;;;;7.22;5.53;;;;;;;;;;4989089;28;20053;-76
2023/04/25 08:18:08;;;;;;;9.40;6.10;;;;;;;;;;4989597;28;20058;-76
2023/04/25 08:20:35;;;;;;;7.50;6.80;;;;;;;;;;4991024;28;20062;-76
2023/04/25 08:23:02;;;;;;;8.55;6.80;;;;;;;;;;4989960;28;20062;-77
2023/04/25 08:25:28;;;;;;;9.68;6.85;;;;;;;;;;5000797;28;20258;-77
2023/04/25 08:27:55;;;;;;;12.27;8.02;;;;;;;;;;5028983;28;20057;-76
2023/04/25 08:30:22;;;;;;;9.07;7.82;;;;;;;;;;5000028;28;20134;-77
2023/04/25 08:32:49;;;;;;;10.77;8.05;;;;;;;;;;5012364;28;20093;-77
2023/04/25 08:35:17;;;;;;;9.27;7.80;;;;;;;;;;4975803;28;20440;-76
2023/04/25 08:37:43;;;;;;;10.07;8.05;;;;;;;;;;4992351;28;20116;-76
2023/04/25 08:40:12;;;;;;;7.75;6.95;;;;;;;;;;4986720;28;20056;-76
2023/04/25 08:42:41;;;;;;;8.23;7.05;;;;;;;;;;4957829;28;20065;-76
2023/04/25 08:45:08;;;;;;;8.60;7.70;;;;;;;;;;4955908;28;20073;-77
2023/04/25 08:47:35;;;;;;;8.25;6.35;;;;;;;;;;4960043;28;20081;-82
2023/04/25 08:50:03;;;;;;;8.10;7.28;;;;;;;;;;4977353;28;20051;-80
2023/04/25 08:52:32;;;;;;;10.35;7.45;;;;;;;;;;4959075;28;20081;-80
2023/04/25 08:54:59;;;;;;;9.85;7.88;;;;;;;;;;4945042;28;20660;-79
2023/04/25 08:57:26;;;;;;;12.20;9.10;;;;;;;;;;4939977;28;20054;-80
2023/04/25 08:59:53;;;;;;;13.15;8.50;;;;;;;;;;4942554;28;20847;-79
2023/04/25 09:02:20;;;;;;;10.73;7.80;;;;;;;;;;4961752;28;20100;-82
2023/04/25 09:04:47;;;;;;;10.68;7.38;;;;;;;;;;4969471;28;20137;-81
2023/04/25 09:07:18;;;;;;;9.70;7.78;;;;;;;;;;4966143;28;20073;-81
2023/04/25 09:09:45;;;;;;;10.65;8.82;;;;;;;;;;4979345;28;20053;-81
2023/04/25 09:12:12;;;;;;;10.60;8.10;;;;;;;;;;4982763;28;20086;-81
2023/04/25 09:14:42;;;;;;;9.65;7.93;;;;;;;;;;4959288;28;20069;-81
2023/04/25 09:17:09;;;;;;;11.95;8.30;;;;;;;;;;5002402;28;20054;-82
2023/04/25 09:19:39;;;;;;;9.80;7.93;;;;;;;;;;4965661;28;20396;-82
2023/04/25 09:22:08;;;;;;;11.70;7.75;;;;;;;;;;4967283;28;20490;-80
2023/04/25 09:24:44;;;;;;;8.85;7.95;;;;;;;;;;4969318;28;20135;-81
2023/04/25 09:27:18;;;;;;;8.15;6.82;;;;;;;;;;4967908;28;20463;-82
2023/04/25 09:29:46;;;;;;;8.45;7.57;;;;;;;;;;4953013;28;20054;-82
2023/04/25 09:32:18;;;;;;;8.57;7.30;;;;;;;;;;4977497;28;20089;-83
2023/04/25 09:34:57;;;;;;;11.88;8.30;;;;;;;;;;4974152;28;20450;-81
2023/04/25 09:37:26;;;;;;;8.32;7.15;;;;;;;;;;4966865;28;20430;-83
2023/04/25 09:39:59;;;;;;;9.43;7.82;;;;;;;;;;4967053;28;20096;-83
2023/04/25 09:42:31;;;;;;;7.90;6.88;;;;;;;;;;4968269;28;20061;-81
2023/04/25 09:44:58;;;;;;;7.68;6.88;;;;;;;;;;4985667;28;20052;-82
2023/04/25 09:47:26;;;;;;;8.48;7.28;;;;;;;;;;4965835;28;20061;-78
2023/04/25 09:49:54;;;;;;;8.13;7.32;;;;;;;;;;4966108;28;20094;-78
2023/04/25 09:52:23;;;;;;;9.23;7.53;;;;;;;;;;4962536;28;20081;-78
2023/04/25 09:54:51;;;;;;;8.35;7.40;;;;;;;;;;4996857;28;20050;-78
2023/04/25 09:57:23;;;;;;;9.88;7.43;;;;;;;;;;4999126;28;20495;-78
2023/04/25 09:59:54;;;;;;;9.13;7.47;;;;;;;;;;4967392;28;20058;-78
2023/04/25 10:02:25;;;;;;;9.07;7.63;;;;;;;;;;4965047;28;20094;-78
2023/04/25 10:04:55;;;;;;;9.73;7.35;;;;;;;;;;4965022;28;20074;-79
2023/04/25 10:07:28;;;;;;;6.88;6.18;;;;;;;;;;4986830;28;20046;-78
2023/04/25 10:10:02;;;;;;;6.60;5.22;;;;;;;;;;4963987;28;20108;-79
2023/04/25 10:12:33;;;;;;;8.73;5.65;;;;;;;;;;5001413;28;20137;-78
2023/04/25 10:15:01;;;;;;;6.63;5.72;;;;;;;;;;4970629;28;20045;-78
2023/04/25 10:17:28;;;;;;;5.65;4.32;;;;;;;;;;4999316;28;20433;-78
2023/04/25 10:19:55;;;;;;;4.80;4.13;;;;;;;;;;4966583;28;20458;-78
2023/04/25 10:22:31;;;;;;;4.72;4.25;;;;;;;;;;4984083;28;20073;-79
2023/04/25 10:24:58;;;;;;;5.07;4.68;;;;;;;;;;5001285;28;20054;-77
2023/04/25 10:27:27;;;;;;;5.68;4.60;;;;;;;;;;4969631;28;20062;-81
2023/04/25 10:30:06;;;;;;;5.88;5.10;;;;;;;;;;4970995;28;20486;-78
2023/04/25 10:32:33;;;;;;;6.55;4.88;;;;;;;;;;4986798;28;20046;-78
2023/04/25 10:35:24;;;;;;;7.97;5.53;;;;;;;;;;4981865;28;20061;-78
2023/04/25 10:38:09;;;;;;;6.10;5.20;;;;;;;;;;4960731;28;20077;-78
2023/04/25 10:40:36;;;;;;;8.88;6.22;;;;;;;;;;4981372;28;20053;-77
2023/04/25 10:43:31;;;;;;;8.18;6.97;;;;;;;;;;4964893;28;20054;-78
2023/04/25 10:46:01;;;;;;;11.65;7.97;;;;;;;;;;4998620;28;20085;-79
2023/04/25 10:48:31;;;;;;;9.60;7.20;;;;;;;;;;4985373;28;20054;-79
2023/04/25 10:51:11;;;;;;;8.30;6.63;;;;;;;;;;4969933;28;20461;-78
2023/04/25 10:53:38;;;;;;;8.88;6.85;;;;;;;;;;4965634;28;20137;-79
2023/04/25 10:56:20;;;;;;;9.32;7.53;;;;;;;;;;4987550;28;20059;-78
2023/04/25 10:58:50;;;;;;;10.60;7.28;;;;;;;;;;4977788;28;20101;-79
2023/04/25 11:01:25;;;;;;;9.38;6.90;;;;;;;;;;4984835;28;20058;-79
2023/04/25 11:03:57;;;;;;;9.68;7.78;;;;;;;;;;4968201;28;20060;-79
2023/04/25 11:06:44;;;;;;;;;;;;;;;;;;4981821;28;20271;-80
2023/04/25 11:09:17;;;;;;;9.77;7.05;;;;;;;;;;4986068;28;20815;-79
2023/04/25 11:11:55;;;;;;;8.32;6.85;;;;;;;;;;4989275;28;20053;-79
2023/04/25 11:14:22;;;;;;;6.68;4.70;;;;;;;;;;4975693;28;20128;-79
2023/04/25 11:16:59;;;;;;;8.27;5.15;;;;;;;;;;4964099;28;20745;-78
2023/04/25 11:19:27;;;;;;;7.15;5.15;;;;;;;;;;4974979;28;20421;-79
2023/04/25 11:21:58;;;;;;;5.28;4.70;;;;;;;;;;4969028;28;20053;-78
2023/04/25 11:24:34;;;;;;;5.32;4.22;;;;;;;;;;4963746;28;20057;-77
2023/04/25 11:27:02;;;;;;;5.22;3.70;;;;;;;;;;4968773;28;20056;-78
2023/04/25 11:29:30;;;;;;;5.10;4.18;;;;;;;;;;4966258;28;20086;-78
2023/04/25 11:31:57;;;;;;;4.32;3.92;;;;;;;;;;4964996;28;20054;-78
2023/04/25 11:34:25;;;;;;;4.35;3.90;;;;;;;;;;4975602;28;20518;-78
2023/04/25 11:36:53;;;;;;;5.00;3.72;;;;;;;;;;4955354;28;20486;-77
2023/04/25 11:39:20;;;;;;;4.68;3.47;;;;;;;;;;4982793;28;20077;-78
2023/04/25 11:41:47;;;;;;;4.85;3.75;;;;;;;;;;4960401;28;20062;-75
2023/04/25 11:44:17;;;;;;;3.33;3.03;;;;;;;;;;4986813;28;20225;-75
2023/04/25 11:46:46;;;;;;;4.32;3.72;;;;;;;;;;4965404;28;20145;-76
2023/04/25 11:49:13;;;;;;;4.07;3.33;;;;;;;;;;4966608;28;20054;-76
2023/04/25 11:51:47;;;;;;;4.97;3.47;;;;;;;;;;4967880;28;20050;-76
2023/04/25 11:54:16;;;;;;;3.75;3.40;;;;;;;;;;4986514;28;20058;-82
2023/04/25 11:56:44;;;;;;;10.10;6.07;;;;;;;;;;4965538;28;20049;-76
2023/04/25 11:59:13;;;;;;;12.98;6.65;;;;;;;;;;4965414;28;20058;-81
2023/04/25 12:01:50;;;;;;;5.50;4.20;;;;;;;;;;4993446;28;20070;-78
2023/04/25 12:04:24;;;;;;;5.45;3.28;;;;;;;;;;4982196;28;20065;-77
2023/04/25 12:06:52;;;;;;;5.85;3.70;;;;;;;;;;4967412;28;20058;-75
2023/04/25 12:09:21;;;;;;;3.03;2.75;;;;;;;;;;4966796;28;20050;-76
2023/04/25 12:11:52;;;;;;;4.15;3.58;;;;;;;;;;4970138;28;20142;-74
2023/04/25 12:14:26;;;;;;;5.60;3.80;;;;;;;;;;4971729;28;20105;-75
2023/04/25 12:16:59;;;;;;;4.40;3.90;;;;;;;;;;4991391;28;20095;-76
2023/04/25 12:19:26;;;;;;;4.60;4.13;;;;;;;;;;4985731;28;20062;-75
2023/04/25 12:21:53;;;;;;;5.13;4.45;;;;;;;;;;4983672;28;20499;-75
2023/04/25 12:24:26;;;;;;;4.50;4.05;;;;;;;;;;4964645;28;20097;-74
2023/04/25 12:27:05;;;;;;;4.40;4.00;;;;;;;;;;4983411;28;20418;-76
2023/04/25 12:29:33;;;;;;;5.53;4.65;;;;;;;;;;4985950;28;20136;-77
2023/04/25 12:32:15;;;;;;;5.88;4.43;;;;;;;;;;4970054;28;20568;-77
2023/04/25 12:34:42;;;;;;;6.15;4.60;;;;;;;;;;4982558;28;20552;-75
2023/04/25 12:37:09;;;;;;;5.10;4.30;;;;;;;;;;4984120;28;20054;-75
2023/04/25 12:39:36;;;;;;;5.78;5.03;;;;;;;;;;4985391;28;20132;-74
2023/04/25 12:42:03;;;;;;;4.97;4.50;;;;;;;;;;4970074;28;20426;-75
2023/04/25 12:44:34;;;;;;;5.93;5.00;;;;;;;;;;4996985;28;20089;-73
2023/04/25 12:47:02;;;;;;;5.97;4.95;;;;;;;;;;4981431;28;20053;-74
2023/04/25 12:49:30;;;;;;;5.85;4.75;;;;;;;;;;4969497;28;20054;-73
2023/04/25 12:51:56;;;;;;;5.63;4.45;;;;;;;;;;4998008;28;20057;-74
2023/04/25 12:54:24;;;;;;;5.38;4.55;;;;;;;;;;4981720;28;20057;-75
2023/04/25 12:56:51;;;;;;;5.38;3.88;;;;;;;;;;4981511;28;20486;-75
2023/04/25 12:59:18;;;;;;;4.30;3.80;;;;;;;;;;4964164;28;20061;-76
2023/04/25 13:01:45;;;;;;;4.00;3.60;;;;;;;;;;4967662;28;20062;-78
2023/04/25 13:04:12;;;;;;;4.28;3.85;;;;;;;;;;4999292;28;20134;-78
2023/04/25 13:06:39;;;;;;;5.78;3.80;;;;;;;;;;4983202;28;20049;-78
2023/04/25 13:09:06;;;;;;;4.35;3.90;;;;;;;;;;4983794;28;20685;-78
2023/04/25 13:11:33;;;;;;;5.93;4.28;;;;;;;;;;4984902;28;20050;-78
2023/04/25 13:14:00;;;;;;;4.38;3.70;;;;;;;;;;5000750;28;20137;-78
2023/04/25 13:16:27;;;;;;;7.32;4.03;;;;;;;;;;4968982;28;20050;-78
2023/04/25 13:18:55;;;;;;;4.32;3.60;;;;;;;;;;4983212;28;20058;-77
2023/04/25 13:21:23;;;;;;;5.00;3.83;;;;;;;;;;4965430;28;20069;-78
2023/04/25 13:23:50;;;;;;;4.60;3.45;;;;;;;;;;4999578;28;20050;-77
2023/04/25 13:26:17;;;;;;;6.32;4.20;;;;;;;;;;4984211;28;20137;-76
2023/04/25 13:28:44;;;;;;;7.07;4.15;;;;;;;;;;4992159;28;20050;-75
2023/04/25 13:31:11;;;;;;;6.18;4.50;;;;;;;;;;4984968;28;20065;-75
2023/04/25 13:33:38;;;;;;;5.40;4.10;;;;;;;;;;4982950;28;20145;-76
2023/04/25 13:36:05;;;;;;;5.45;4.30;;;;;;;;;;4973190;28;20066;-76
2023/04/25 13:38:32;;;;;;;6.90;4.43;;;;;;;;;;4988641;28;20478;-76
2023/04/25 13:40:59;;;;;;;4.43;3.97;;;;;;;;;;4975130;28;20054;-76
2023/04/25 13:43:26;;;;;;;4.85;3.85;;;;;;;;;;4977118;28;20094;-75
2023/04/25 13:45:52;;;;;;;7.13;4.38;;;;;;;;;;4979349;28;20054;-75
2023/04/25 13:48:19;;;;;;;6.32;4.80;;;;;;;;;;4979343;28;20419;-75
2023/04/25 13:50:46;;;;;;;8.60;5.80;;;;;;;;;;4978665;28;20169;-75
2023/04/25 13:53:13;;;;;;;10.90;7.15;;;;;;;;;;4978874;28;20061;-74
2023/04/25 13:55:40;;;;;;;10.07;6.65;;;;;;;;;;4976710;28;20498;-74
2023/04/25 13:58:07;;;;;;;11.40;6.45;;;;;;;;;;4960952;28;20057;-74
2023/04/25 14:00:38;;;;;;;7.68;6.18;;;;;;;;;;4997079;28;20054;-74
2023/04/25 14:03:07;;;;;;;8.80;6.55;;;;;;;;;;4965372;28;20058;-74
2023/04/25 14:05:38;;;;;;;8.77;6.72;;;;;;;;;;4988288;28;20054;-72
2023/04/25 14:08:06;;;;;;;7.82;6.22;;;;;;;;;;4993177;28;20506;-72
2023/04/25 14:10:34;;;;;;;8.15;5.43;;;;;;;;;;4993698;28;20137;-73
2023/04/25 14:13:02;;;;;;;8.55;5.38;;;;;;;;;;5002661;28;20129;-73
2023/04/25 14:15:33;;;;;;;9.15;6.07;;;;;;;;;;4988630;28;20064;-71
2023/04/25 14:18:01;;;;;;;6.88;5.50;;;;;;;;;;4968806;28;20054;-71
2023/04/25 14:20:28;;;;;;;8.18;5.47;;;;;;;;;;4973571;28;20046;-70
2023/04/25 14:22:56;;;;;;;7.93;5.65;;;;;;;;;;4979553;28;20061;-71
2023/04/25 14:25:25;;;;;;;5.07;4.55;;;;;;;;;;4994250;28;20418;-71
2023/04/25 14:27:55;;;;;;;7.50;5.47;;;;;;;;;;4985664;28;20097;-70
2023/04/25 14:30:22;;;;;;;7.88;5.35;;;;;;;;;;4984832;28;20065;-70
2023/04/25 14:32:50;;;;;;;7.60;5.35;;;;;;;;;;4985742;28;20141;-70
2023/04/25 14:35:20;;;;;;;6.15;5.03;;;;;;;;;;4981975;28;20058;-70
2023/04/25 14:37:47;;;;;;;6.72;4.72;;;;;;;;;;4984168;28;20049;-70
2023/04/25 14:40:15;;;;;;;5.88;4.70;;;;;;;;;;4983877;28;20061;-71
2023/04/25 14:42:42;;;;;;;4.93;4.20;;;;;;;;;;5000779;28;20061;-71
2023/04/25 14:45:09;;;;;;;7.72;4.55;;;;;;;;;;5000248;28;20064;-70
2023/04/25 14:47:37;;;;;;;5.43;4.35;;;;;;;;;;4997176;28;20529;-71
2023/04/25 14:50:05;;;;;;;6.75;4.10;;;;;;;;;;4985230;28;20057;-71